sensor_id;sensor_type;location;lat;lon;timestamp;pressure;altitude;pressure_sealevel;temperature;humidity
30682;BME280;17439;48.092;11.842;2022-07-22T00:02:24;95799.22;;;22.05;56.16
30682;BME280;17439;48.092;11.842;2022-07-22T00:04:51;95799.97;;;22.02;55.94
30682;BME280;17439;48.092;11.842;2022-07-22T00:07:18;95780.22;;;22.00;55.94
30682;BME280;17439;48.092;11.842;2022-07-22T00:09:44;95788.44;;;21.97;56.18
30682;BME280;17439;48.092;11.842;2022-07-22T00:12:11;95791.59;;;21.95;56.36
30682;BME280;17439;48.092;11.842;2022-07-22T00:14:38;95790.75;;;21.91;56.22
30682;BME280;17439;48.092;11.842;2022-07-22T00:17:05;95789.91;;;21.87;56.32
30682;BME280;17439;48.092;11.842;2022-07-22T00:19:31;95784.78;;;21.85;56.29
30682;BME280;17439;48.092;11.842;2022-07-22T00:21:58;95785.16;;;21.84;56.25
30682;BME280;17439;48.092;11.842;2022-07-22T00:24:25;95782.34;;;21.80;56.21
30682;BME280;17439;48.092;11.842;2022-07-22T00:26:51;95779.97;;;21.79;56.27
30682;BME280;17439;48.092;11.842;2022-07-22T00:29:18;95777.97;;;21.76;56.09
30682;BME280;17439;48.092;11.842;2022-07-22T00:31:45;95780.31;;;21.73;56.36
30682;BME280;17439;48.092;11.842;2022-07-22T00:34:12;95772.41;;;21.72;56.71
30682;BME280;17439;48.092;11.842;2022-07-22T00:36:39;95776.69;;;21.69;56.83
30682;BME280;17439;48.092;11.842;2022-07-22T00:39:06;95776.28;;;21.67;56.88
30682;BME280;17439;48.092;11.842;2022-07-22T00:41:32;95768.38;;;21.66;57.19
30682;BME280;17439;48.092;11.842;2022-07-22T00:44:06;95779.00;;;21.64;57.02
30682;BME280;17439;48.092;11.842;2022-07-22T00:46:35;95769.13;;;21.63;57.15
30682;BME280;17439;48.092;11.842;2022-07-22T00:49:04;95766.75;;;21.61;57.23
30682;BME280;17439;48.092;11.842;2022-07-22T00:51:31;95768.72;;;21.61;56.97
30682;BME280;17439;48.092;11.842;2022-07-22T00:53:59;95771.84;;;21.59;56.86
30682;BME280;17439;48.092;11.842;2022-07-22T00:56:26;95769.84;;;21.56;56.89
30682;BME280;17439;48.092;11.842;2022-07-22T00:58:57;95768.25;;;21.55;57.04
30682;BME280;17439;48.092;11.842;2022-07-22T01:01:25;95766.66;;;21.54;57.04
30682;BME280;17439;48.092;11.842;2022-07-22T01:03:52;95763.47;;;21.52;56.66
30682;BME280;17439;48.092;11.842;2022-07-22T01:06:27;95761.91;;;21.51;57.00
30682;BME280;17439;48.092;11.842;2022-07-22T01:08:54;95754.34;;;21.48;56.95
30682;BME280;17439;48.092;11.842;2022-07-22T01:11:22;95761.00;;;21.47;56.81
30682;BME280;17439;48.092;11.842;2022-07-22T01:13:50;95766.13;;;21.45;56.91
30682;BME280;17439;48.092;11.842;2022-07-22T01:16:17;95768.44;;;21.43;56.69
30682;BME280;17439;48.092;11.842;2022-07-22T01:18:45;95759.75;;;21.41;56.70
30682;BME280;17439;48.092;11.842;2022-07-22T01:21:15;95759.34;;;21.38;56.73
30682;BME280;17439;48.092;11.842;2022-07-22T01:23:43;95758.94;;;21.36;56.88
30682;BME280;17439;48.092;11.842;2022-07-22T01:26:11;95756.16;;;21.36;56.85
30682;BME280;17439;48.092;11.842;2022-07-22T01:28:38;95756.91;;;21.33;57.22
30682;BME280;17439;48.092;11.842;2022-07-22T01:31:06;95757.28;;;21.32;56.96
30682;BME280;17439;48.092;11.842;2022-07-22T01:33:33;95756.06;;;21.29;57.22
30682;BME280;17439;48.092;11.842;2022-07-22T01:36:00;95758.41;;;21.27;57.27
30682;BME280;17439;48.092;11.842;2022-07-22T01:38:27;95752.06;;;21.27;56.90
30682;BME280;17439;48.092;11.842;2022-07-22T01:40:55;95745.78;;;21.26;56.92
30682;BME280;17439;48.092;11.842;2022-07-22T01:43:22;95747.75;;;21.26;57.16
30682;BME280;17439;48.092;11.842;2022-07-22T01:45:51;95746.53;;;21.23;57.31
30682;BME280;17439;48.092;11.842;2022-07-22T01:48:20;95750.03;;;21.20;57.33
30682;BME280;17439;48.092;11.842;2022-07-22T01:50:48;95746.06;;;21.17;57.25
30682;BME280;17439;48.092;11.842;2022-07-22T01:53:16;95744.06;;;21.14;57.09
30682;BME280;17439;48.092;11.842;2022-07-22T01:55:44;95740.47;;;21.14;56.88
30682;BME280;17439;48.092;11.842;2022-07-22T01:58:12;95740.44;;;21.10;56.99
30682;BME280;17439;48.092;11.842;2022-07-22T02:00:39;95741.97;;;21.08;56.95
30682;BME280;17439;48.092;11.842;2022-07-22T02:03:06;95746.69;;;21.07;57.27
30682;BME280;17439;48.092;11.842;2022-07-22T02:05:33;95747.06;;;21.06;56.82
30682;BME280;17439;48.092;11.842;2022-07-22T02:08:09;95739.53;;;21.02;57.41
30682;BME280;17439;48.092;11.842;2022-07-22T02:10:59;95740.28;;;20.99;56.82
30682;BME280;17439;48.092;11.842;2022-07-22T02:13:27;95738.25;;;20.96;57.21
30682;BME280;17439;48.092;11.842;2022-07-22T02:15:54;95734.72;;;20.96;57.11
30682;BME280;17439;48.092;11.842;2022-07-22T02:18:21;95746.91;;;20.95;57.21
30682;BME280;17439;48.092;11.842;2022-07-22T02:20:48;95742.56;;;20.94;57.09
30682;BME280;17439;48.092;11.842;2022-07-22T02:23:15;95742.94;;;20.92;57.28
30682;BME280;17439;48.092;11.842;2022-07-22T02:25:42;95731.91;;;20.92;57.10
30682;BME280;17439;48.092;11.842;2022-07-22T02:28:09;95735.84;;;20.91;57.49
30682;BME280;17439;48.092;11.842;2022-07-22T02:30:37;95744.88;;;20.92;57.13
30682;BME280;17439;48.092;11.842;2022-07-22T02:33:04;95748.00;;;20.90;57.29
30682;BME280;17439;48.092;11.842;2022-07-22T02:35:32;95740.91;;;20.89;57.21
30682;BME280;17439;48.092;11.842;2022-07-22T02:37:59;95733.81;;;20.88;56.88
30682;BME280;17439;48.092;11.842;2022-07-22T02:40:29;95738.91;;;20.86;57.04
30682;BME280;17439;48.092;11.842;2022-07-22T02:42:56;95742.41;;;20.83;57.20
30682;BME280;17439;48.092;11.842;2022-07-22T02:45:23;95732.53;;;20.82;56.97
30682;BME280;17439;48.092;11.842;2022-07-22T02:47:54;95737.63;;;20.80;58.04
30682;BME280;17439;48.092;11.842;2022-07-22T02:50:23;95737.22;;;20.78;57.19
30682;BME280;17439;48.092;11.842;2022-07-22T02:52:50;95735.97;;;20.75;57.50
30682;BME280;17439;48.092;11.842;2022-07-22T02:55:18;95740.72;;;20.75;57.26
30682;BME280;17439;48.092;11.842;2022-07-22T02:57:47;95734.75;;;20.73;56.78
30682;BME280;17439;48.092;11.842;2022-07-22T03:00:14;95746.53;;;20.70;56.89
30682;BME280;17439;48.092;11.842;2022-07-22T03:02:44;95740.16;;;20.65;56.71
30682;BME280;17439;48.092;11.842;2022-07-22T03:05:11;95745.22;;;20.63;56.82
30682;BME280;17439;48.092;11.842;2022-07-22T03:07:46;95738.06;;;20.59;56.93
30682;BME280;17439;48.092;11.842;2022-07-22T03:10:13;95743.50;;;20.55;56.78
30682;BME280;17439;48.092;11.842;2022-07-22T03:12:39;95747.78;;;20.53;57.17
30682;BME280;17439;48.092;11.842;2022-07-22T03:15:06;95737.09;;;20.47;57.16
30682;BME280;17439;48.092;11.842;2022-07-22T03:17:36;95740.59;;;20.44;57.13
30682;BME280;17439;48.092;11.842;2022-07-22T03:20:06;95742.88;;;20.42;57.11
30682;BME280;17439;48.092;11.842;2022-07-22T03:22:33;95739.72;;;20.40;57.47
30682;BME280;17439;48.092;11.842;2022-07-22T03:25:01;95736.53;;;20.38;57.38
30682;BME280;17439;48.092;11.842;2022-07-22T03:27:28;95747.50;;;20.35;57.46
30682;BME280;17439;48.092;11.842;2022-07-22T03:29:55;95745.91;;;20.34;57.54
30682;BME280;17439;48.092;11.842;2022-07-22T03:32:22;95751.41;;;20.34;57.61
30682;BME280;17439;48.092;11.842;2022-07-22T03:34:49;95749.81;;;20.33;57.33
30682;BME280;17439;48.092;11.842;2022-07-22T03:37:16;95754.53;;;20.32;57.52
30682;BME280;17439;48.092;11.842;2022-07-22T03:39:43;95749.38;;;20.30;57.32
30682;BME280;17439;48.092;11.842;2022-07-22T03:42:11;95750.91;;;20.28;57.36
30682;BME280;17439;48.092;11.842;2022-07-22T03:44:46;95759.97;;;20.28;57.49
30682;BME280;17439;48.092;11.842;2022-07-22T03:47:18;95755.19;;;20.25;57.89
30682;BME280;17439;48.092;11.842;2022-07-22T03:49:46;95757.50;;;20.23;57.52
30682;BME280;17439;48.092;11.842;2022-07-22T03:52:15;95757.88;;;20.22;57.09
30682;BME280;17439;48.092;11.842;2022-07-22T03:54:42;95756.66;;;20.19;57.31
30682;BME280;17439;48.092;11.842;2022-07-22T03:57:09;95760.94;;;20.17;57.21
30682;BME280;17439;48.092;11.842;2022-07-22T03:59:37;95757.38;;;20.16;57.19
30682;BME280;17439;48.092;11.842;2022-07-22T04:02:04;95759.72;;;20.14;57.45
30682;BME280;17439;48.092;11.842;2022-07-22T04:04:31;95760.88;;;20.13;57.56
30682;BME280;17439;48.092;11.842;2022-07-22T04:06:58;95754.22;;;20.14;57.45
30682;BME280;17439;48.092;11.842;2022-07-22T04:09:31;95760.50;;;20.15;57.34
30682;BME280;17439;48.092;11.842;2022-07-22T04:11:58;95764.03;;;20.15;57.59
30682;BME280;17439;48.092;11.842;2022-07-22T04:14:26;95759.34;;;20.16;57.85
30682;BME280;17439;48.092;11.842;2022-07-22T04:16:56;95754.28;;;20.18;57.59
30682;BME280;17439;48.092;11.842;2022-07-22T04:19:22;95751.16;;;20.19;58.00
30682;BME280;17439;48.092;11.842;2022-07-22T04:21:52;95752.75;;;20.20;57.88
30682;BME280;17439;48.092;11.842;2022-07-22T04:24:21;95759.47;;;20.23;58.35
30682;BME280;17439;48.092;11.842;2022-07-22T04:26:48;95759.09;;;20.24;58.31
30682;BME280;17439;48.092;11.842;2022-07-22T04:29:15;95745.41;;;20.28;58.03
30682;BME280;17439;48.092;11.842;2022-07-22T04:31:42;95750.53;;;20.29;58.12
30682;BME280;17439;48.092;11.842;2022-07-22T04:34:13;95745.13;;;20.33;58.07
30682;BME280;17439;48.092;11.842;2022-07-22T04:36:39;95751.88;;;20.39;58.37
30682;BME280;17439;48.092;11.842;2022-07-22T04:39:06;95749.63;;;20.45;58.77
30682;BME280;17439;48.092;11.842;2022-07-22T04:41:34;95743.88;;;20.54;59.29
30682;BME280;17439;48.092;11.842;2022-07-22T04:44:01;95750.72;;;20.63;59.34
30682;BME280;17439;48.092;11.842;2022-07-22T04:46:30;95749.38;;;20.77;59.37
30682;BME280;17439;48.092;11.842;2022-07-22T04:48:59;95743.69;;;20.89;59.09
30682;BME280;17439;48.092;11.842;2022-07-22T04:51:26;95748.16;;;21.01;58.84
30682;BME280;17439;48.092;11.842;2022-07-22T04:54:00;95738.53;;;21.14;58.17
30682;BME280;17439;48.092;11.842;2022-07-22T04:56:27;95738.66;;;21.25;57.65
30682;BME280;17439;48.092;11.842;2022-07-22T04:58:55;95743.13;;;21.33;57.33
30682;BME280;17439;48.092;11.842;2022-07-22T05:01:27;95747.56;;;21.42;56.85
30682;BME280;17439;48.092;11.842;2022-07-22T05:03:55;95744.06;;;21.45;57.14
30682;BME280;17439;48.092;11.842;2022-07-22T05:06:22;95742.59;;;21.51;57.10
30682;BME280;17439;48.092;11.842;2022-07-22T05:08:51;95745.38;;;21.54;56.91
30682;BME280;17439;48.092;11.842;2022-07-22T05:11:19;95746.22;;;21.59;56.94
30682;BME280;17439;48.092;11.842;2022-07-22T05:13:47;95745.91;;;21.64;56.92
30682;BME280;17439;48.092;11.842;2022-07-22T05:16:14;95740.84;;;21.69;56.89
30682;BME280;17439;48.092;11.842;2022-07-22T05:18:41;95747.59;;;21.76;56.55
30682;BME280;17439;48.092;11.842;2022-07-22T05:21:12;95745.72;;;21.83;57.06
30682;BME280;17439;48.092;11.842;2022-07-22T05:23:38;95743.06;;;21.90;56.93
30682;BME280;17439;48.092;11.842;2022-07-22T05:26:06;95735.63;;;21.98;56.53
30682;BME280;17439;48.092;11.842;2022-07-22T05:28:33;95742.84;;;22.06;56.92
30682;BME280;17439;48.092;11.842;2022-07-22T05:31:00;95744.13;;;22.16;56.52
30682;BME280;17439;48.092;11.842;2022-07-22T05:33:28;95743.00;;;22.24;56.81
30682;BME280;17439;48.092;11.842;2022-07-22T05:35:55;95730.88;;;22.33;56.54
30682;BME280;17439;48.092;11.842;2022-07-22T05:38:24;95736.91;;;22.42;56.34
30682;BME280;17439;48.092;11.842;2022-07-22T05:40:51;95737.75;;;22.50;56.55
30682;BME280;17439;48.092;11.842;2022-07-22T05:43:18;95733.88;;;22.58;56.42
30682;BME280;17439;48.092;11.842;2022-07-22T05:45:44;95729.19;;;22.66;55.96
30682;BME280;17439;48.092;11.842;2022-07-22T05:48:11;95730.06;;;22.73;55.93
30682;BME280;17439;48.092;11.842;2022-07-22T05:50:38;95728.53;;;22.83;56.25
30682;BME280;17439;48.092;11.842;2022-07-22T05:53:05;95732.16;;;22.91;55.91
30682;BME280;17439;48.092;11.842;2022-07-22T05:55:32;95729.81;;;22.96;55.75
30682;BME280;17439;48.092;11.842;2022-07-22T05:57:59;95733.41;;;23.04;55.88
30682;BME280;17439;48.092;11.842;2022-07-22T06:00:26;95727.56;;;23.09;55.92
30682;BME280;17439;48.092;11.842;2022-07-22T06:02:52;95731.53;;;23.15;55.79
30682;BME280;17439;48.092;11.842;2022-07-22T06:05:20;95728.38;;;23.10;55.61
30682;BME280;17439;48.092;11.842;2022-07-22T06:08:07;95725.69;;;23.28;55.50
30682;BME280;17439;48.092;11.842;2022-07-22T06:10:42;95727.31;;;23.36;55.85
30682;BME280;17439;48.092;11.842;2022-07-22T06:13:09;95731.28;;;23.42;55.67
30682;BME280;17439;48.092;11.842;2022-07-22T06:15:38;95736.06;;;23.49;55.45
30682;BME280;17439;48.092;11.842;2022-07-22T06:18:05;95731.75;;;23.55;55.50
30682;BME280;17439;48.092;11.842;2022-07-22T06:20:32;95727.81;;;23.63;55.30
30682;BME280;17439;48.092;11.842;2022-07-22T06:22:58;95727.47;;;23.72;55.26
30682;BME280;17439;48.092;11.842;2022-07-22T06:25:25;95729.88;;;23.81;55.14
30682;BME280;17439;48.092;11.842;2022-07-22T06:28:30;95733.88;;;23.90;54.71
30682;BME280;17439;48.092;11.842;2022-07-22T06:30:56;95727.59;;;24.01;54.48
30682;BME280;17439;48.092;11.842;2022-07-22T06:33:24;95725.25;;;24.10;54.22
30682;BME280;17439;48.092;11.842;2022-07-22T06:35:52;95729.63;;;24.18;54.51
30682;BME280;17439;48.092;11.842;2022-07-22T06:38:19;95730.03;;;24.27;53.95
30682;BME280;17439;48.092;11.842;2022-07-22T06:41:20;95726.06;;;24.36;53.67
30682;BME280;17439;48.092;11.842;2022-07-22T06:44:08;95719.34;;;24.44;53.21
30682;BME280;17439;48.092;11.842;2022-07-22T06:46:50;95728.47;;;24.55;52.40
30682;BME280;17439;48.092;11.842;2022-07-22T06:49:20;95725.31;;;24.60;52.46
30682;BME280;17439;48.092;11.842;2022-07-22T06:51:50;95731.66;;;24.68;52.49
30682;BME280;17439;48.092;11.842;2022-07-22T06:54:17;95724.16;;;24.72;52.45
30682;BME280;17439;48.092;11.842;2022-07-22T06:56:45;95723.34;;;24.79;52.55
30682;BME280;17439;48.092;11.842;2022-07-22T06:59:17;95719.38;;;24.87;52.66
30682;BME280;17439;48.092;11.842;2022-07-22T07:01:44;95723.72;;;24.95;52.30
30682;BME280;17439;48.092;11.842;2022-07-22T07:04:12;95730.81;;;25.04;51.81
30682;BME280;17439;48.092;11.842;2022-07-22T07:06:40;95725.28;;;25.11;51.57
30682;BME280;17439;48.092;11.842;2022-07-22T07:09:25;95720.88;;;25.24;50.76
30682;BME280;17439;48.092;11.842;2022-07-22T07:12:02;95719.69;;;25.32;50.48
30682;BME280;17439;48.092;11.842;2022-07-22T07:14:47;95726.84;;;25.41;50.06
30682;BME280;17439;48.092;11.842;2022-07-22T07:17:35;95718.88;;;25.46;50.53
30682;BME280;17439;48.092;11.842;2022-07-22T07:20:05;95718.44;;;25.59;49.58
30682;BME280;17439;48.092;11.842;2022-07-22T07:22:34;95705.31;;;25.66;49.79
30682;BME280;17439;48.092;11.842;2022-07-22T07:25:04;95715.97;;;25.75;49.42
30682;BME280;17439;48.092;11.842;2022-07-22T07:27:50;95706.81;;;25.82;49.37
30682;BME280;17439;48.092;11.842;2022-07-22T07:30:26;95712.75;;;25.87;49.68
30682;BME280;17439;48.092;11.842;2022-07-22T07:32:53;95708.38;;;25.94;49.42
30682;BME280;17439;48.092;11.842;2022-07-22T07:35:20;95708.34;;;26.01;49.26
30682;BME280;17439;48.092;11.842;2022-07-22T07:37:50;95693.63;;;26.11;49.26
30682;BME280;17439;48.092;11.842;2022-07-22T07:40:17;95707.44;;;26.18;49.21
30682;BME280;17439;48.092;11.842;2022-07-22T07:42:44;95700.66;;;26.27;49.09
30682;BME280;17439;48.092;11.842;2022-07-22T07:45:19;95699.41;;;26.35;48.62
30682;BME280;17439;48.092;11.842;2022-07-22T07:47:47;95704.53;;;26.40;48.63
30682;BME280;17439;48.092;11.842;2022-07-22T07:50:14;95703.69;;;26.47;48.16
30682;BME280;17439;48.092;11.842;2022-07-22T07:52:43;95692.09;;;26.55;48.10
30682;BME280;17439;48.092;11.842;2022-07-22T07:55:19;95690.06;;;26.63;46.73
30682;BME280;17439;48.092;11.842;2022-07-22T07:57:48;95694.00;;;26.69;47.08
30682;BME280;17439;48.092;11.842;2022-07-22T08:00:18;95703.06;;;26.77;46.69
30682;BME280;17439;48.092;11.842;2022-07-22T08:02:46;95689.09;;;26.84;46.76
30682;BME280;17439;48.092;11.842;2022-07-22T08:05:15;95685.47;;;26.91;46.46
30682;BME280;17439;48.092;11.842;2022-07-22T08:07:42;95686.97;;;26.99;46.41
30682;BME280;17439;48.092;11.842;2022-07-22T08:10:09;95681.34;;;27.06;46.29
30682;BME280;17439;48.092;11.842;2022-07-22T08:13:12;95688.41;;;27.14;45.82
30682;BME280;17439;48.092;11.842;2022-07-22T08:16:02;95689.94;;;27.19;46.17
30682;BME280;17439;48.092;11.842;2022-07-22T08:18:30;95686.28;;;27.26;45.91
30682;BME280;17439;48.092;11.842;2022-07-22T08:20:58;95685.88;;;27.31;45.84
30682;BME280;17439;48.092;11.842;2022-07-22T08:23:44;95686.53;;;27.42;44.95
30682;BME280;17439;48.092;11.842;2022-07-22T08:26:12;95680.13;;;27.49;44.27
30682;BME280;17439;48.092;11.842;2022-07-22T08:28:38;95683.22;;;27.55;44.37
30682;BME280;17439;48.092;11.842;2022-07-22T08:31:05;95675.22;;;27.57;43.48
30682;BME280;17439;48.092;11.842;2022-07-22T08:33:32;95681.53;;;27.61;43.82
30682;BME280;17439;48.092;11.842;2022-07-22T08:35:59;95674.38;;;27.63;44.10
30682;BME280;17439;48.092;11.842;2022-07-22T08:38:27;95676.25;;;27.70;43.96
30682;BME280;17439;48.092;11.842;2022-07-22T08:40:54;95689.31;;;27.77;43.48
30682;BME280;17439;48.092;11.842;2022-07-22T08:43:31;95684.47;;;27.81;42.79
30682;BME280;17439;48.092;11.842;2022-07-22T08:46:01;95677.97;;;27.91;41.55
30682;BME280;17439;48.092;11.842;2022-07-22T08:48:36;95675.91;;;27.99;41.45
30682;BME280;17439;48.092;11.842;2022-07-22T08:51:20;95673.38;;;28.08;41.39
30682;BME280;17439;48.092;11.842;2022-07-22T08:54:08;95666.50;;;28.16;40.74
30682;BME280;17439;48.092;11.842;2022-07-22T08:56:35;95669.59;;;28.22;40.13
30682;BME280;17439;48.092;11.842;2022-07-22T08:59:02;95656.47;;;28.22;40.38
30682;BME280;17439;48.092;11.842;2022-07-22T09:01:28;95651.25;;;28.25;41.19
30682;BME280;17439;48.092;11.842;2022-07-22T09:03:57;95655.56;;;28.29;40.95
30682;BME280;17439;48.092;11.842;2022-07-22T09:06:30;95645.94;;;28.34;39.99
30682;BME280;17439;48.092;11.842;2022-07-22T09:08:59;95647.03;;;28.40;40.09
30682;BME280;17439;48.092;11.842;2022-07-22T09:11:45;95651.06;;;28.35;41.46
30682;BME280;17439;48.092;11.842;2022-07-22T09:14:48;95651.56;;;28.54;38.40
30682;BME280;17439;48.092;11.842;2022-07-22T09:17:50;95650.63;;;28.64;39.61
30682;BME280;17439;48.092;11.842;2022-07-22T09:20:40;95646.44;;;28.76;39.73
30682;BME280;17439;48.092;11.842;2022-07-22T09:23:26;95641.09;;;28.85;39.41
30682;BME280;17439;48.092;11.842;2022-07-22T09:26:05;95634.97;;;28.94;39.71
30682;BME280;17439;48.092;11.842;2022-07-22T09:28:58;95633.97;;;29.04;38.71
30682;BME280;17439;48.092;11.842;2022-07-22T09:31:30;95636.22;;;29.13;37.73
30682;BME280;17439;48.092;11.842;2022-07-22T09:34:10;95636.09;;;29.20;38.23
30682;BME280;17439;48.092;11.842;2022-07-22T09:36:54;95640.88;;;29.20;35.42
30682;BME280;17439;48.092;11.842;2022-07-22T09:39:27;95636.31;;;29.29;37.42
30682;BME280;17439;48.092;11.842;2022-07-22T09:42:03;95636.88;;;29.41;36.77
30682;BME280;17439;48.092;11.842;2022-07-22T09:44:30;95625.56;;;29.48;35.92
30682;BME280;17439;48.092;11.842;2022-07-22T09:47:03;95623.47;;;29.52;36.73
30682;BME280;17439;48.092;11.842;2022-07-22T09:49:48;95617.03;;;29.55;36.37
30682;BME280;17439;48.092;11.842;2022-07-22T09:52:37;95620.38;;;29.66;36.17
30682;BME280;17439;48.092;11.842;2022-07-22T09:55:06;95609.41;;;29.76;35.87
30682;BME280;17439;48.092;11.842;2022-07-22T09:57:35;95610.16;;;29.80;35.25
30682;BME280;17439;48.092;11.842;2022-07-22T10:00:04;95613.56;;;29.88;35.33
30682;BME280;17439;48.092;11.842;2022-07-22T10:05:18;95607.28;;;30.00;35.08
30682;BME280;17439;48.092;11.842;2022-07-22T10:07:47;95604.78;;;30.06;35.03
30682;BME280;17439;48.092;11.842;2022-07-22T10:10:17;95605.03;;;30.11;35.38
30682;BME280;17439;48.092;11.842;2022-07-22T10:12:48;95600.06;;;30.19;34.85
30682;BME280;17439;48.092;11.842;2022-07-22T10:15:16;95586.78;;;30.23;35.09
30682;BME280;17439;48.092;11.842;2022-07-22T10:17:46;95589.81;;;30.29;34.82
30682;BME280;17439;48.092;11.842;2022-07-22T10:20:17;95586.44;;;30.37;33.80
30682;BME280;17439;48.092;11.842;2022-07-22T10:22:50;95583.84;;;30.47;34.76
30682;BME280;17439;48.092;11.842;2022-07-22T10:25:32;95577.38;;;30.50;34.96
30682;BME280;17439;48.092;11.842;2022-07-22T10:28:22;95573.25;;;30.54;35.18
30682;BME280;17439;48.092;11.842;2022-07-22T10:30:49;95568.25;;;30.62;34.36
30682;BME280;17439;48.092;11.842;2022-07-22T10:33:18;95577.66;;;30.68;34.39
30682;BME280;17439;48.092;11.842;2022-07-22T10:36:00;95567.19;;;30.72;33.25
30682;BME280;17439;48.092;11.842;2022-07-22T10:38:30;95566.63;;;30.78;33.32
30682;BME280;17439;48.092;11.842;2022-07-22T10:41:30;95564.38;;;30.72;31.58
30682;BME280;17439;48.092;11.842;2022-07-22T10:43:59;95564.78;;;30.87;33.73
30682;BME280;17439;48.092;11.842;2022-07-22T10:46:53;95557.41;;;30.93;33.96
30682;BME280;17439;48.092;11.842;2022-07-22T10:49:22;95557.59;;;31.03;33.31
30682;BME280;17439;48.092;11.842;2022-07-22T10:57:44;95551.50;;;31.34;33.27
30682;BME280;17439;48.092;11.842;2022-07-22T11:00:11;95554.09;;;31.41;33.49
30682;BME280;17439;48.092;11.842;2022-07-22T11:02:39;95543.22;;;31.43;32.63
30682;BME280;17439;48.092;11.842;2022-07-22T11:05:07;95544.25;;;31.49;32.74
30682;BME280;17439;48.092;11.842;2022-07-22T11:07:40;95540.13;;;31.54;32.41
30682;BME280;17439;48.092;11.842;2022-07-22T11:10:11;95540.59;;;31.65;32.54
30682;BME280;17439;48.092;11.842;2022-07-22T11:12:48;95541.47;;;31.62;34.20
30682;BME280;17439;48.092;11.842;2022-07-22T11:15:17;95540.81;;;31.83;32.15
30682;BME280;17439;48.092;11.842;2022-07-22T11:17:43;95538.34;;;31.98;31.11
30682;BME280;17439;48.092;11.842;2022-07-22T11:20:12;95536.81;;;32.10;30.26
30682;BME280;17439;48.092;11.842;2022-07-22T11:22:39;95536.81;;;32.10;30.69
30682;BME280;17439;48.092;11.842;2022-07-22T11:25:08;95536.31;;;32.12;30.10
30682;BME280;17439;48.092;11.842;2022-07-22T11:27:36;95536.44;;;32.08;31.15
30682;BME280;17439;48.092;11.842;2022-07-22T11:30:03;95533.19;;;31.97;31.33
30682;BME280;17439;48.092;11.842;2022-07-22T11:32:31;95533.06;;;32.00;31.36
30682;BME280;17439;48.092;11.842;2022-07-22T11:34:59;95536.66;;;32.01;31.75
30682;BME280;17439;48.092;11.842;2022-07-22T11:37:27;95523.31;;;32.05;31.91
30682;BME280;17439;48.092;11.842;2022-07-22T11:40:03;95521.06;;;32.13;32.40
30682;BME280;17439;48.092;11.842;2022-07-22T11:42:31;95525.66;;;32.19;32.04
30682;BME280;17439;48.092;11.842;2022-07-22T11:44:57;95517.78;;;32.27;32.02
30682;BME280;17439;48.092;11.842;2022-07-22T11:47:24;95519.91;;;32.36;32.32
30682;BME280;17439;48.092;11.842;2022-07-22T11:49:51;95509.09;;;32.47;32.01
30682;BME280;17439;48.092;11.842;2022-07-22T11:52:18;95507.16;;;32.57;31.71
30682;BME280;17439;48.092;11.842;2022-07-22T11:54:45;95497.50;;;32.71;32.00
30682;BME280;17439;48.092;11.842;2022-07-22T11:57:13;95496.91;;;32.76;31.89
30682;BME280;17439;48.092;11.842;2022-07-22T11:59:40;95493.50;;;32.81;31.25
30682;BME280;17439;48.092;11.842;2022-07-22T12:02:08;95493.38;;;32.85;31.29
30682;BME280;17439;48.092;11.842;2022-07-22T12:04:34;95497.09;;;32.82;31.65
30682;BME280;17439;48.092;11.842;2022-07-22T12:07:02;95490.38;;;33.01;31.20
30682;BME280;17439;48.092;11.842;2022-07-22T12:09:33;95482.72;;;33.02;30.75
30682;BME280;17439;48.092;11.842;2022-07-22T12:12:00;95485.28;;;33.09;31.29
30682;BME280;17439;48.092;11.842;2022-07-22T12:14:29;95485.34;;;33.18;31.60
30682;BME280;17439;48.092;11.842;2022-07-22T12:17:10;95478.69;;;33.25;31.41
30682;BME280;17439;48.092;11.842;2022-07-22T12:19:39;95474.34;;;33.33;31.61
30682;BME280;17439;48.092;11.842;2022-07-22T12:22:11;95465.97;;;33.42;31.47
30682;BME280;17439;48.092;11.842;2022-07-22T12:24:43;95467.38;;;33.47;31.71
30682;BME280;17439;48.092;11.842;2022-07-22T12:29:43;95465.56;;;33.62;31.55
30682;BME280;17439;48.092;11.842;2022-07-22T12:37:26;95457.53;;;33.83;30.51
30682;BME280;17439;48.092;11.842;2022-07-22T12:39:56;95448.81;;;33.81;30.39
30682;BME280;17439;48.092;11.842;2022-07-22T12:42:25;95455.19;;;33.82;30.47
30682;BME280;17439;48.092;11.842;2022-07-22T12:47:50;95455.88;;;33.95;29.57
30682;BME280;17439;48.092;11.842;2022-07-22T12:50:27;95450.72;;;34.03;30.96
30682;BME280;17439;48.092;11.842;2022-07-22T12:53:05;95452.78;;;34.11;30.71
30682;BME280;17439;48.092;11.842;2022-07-22T12:55:45;95449.78;;;34.15;31.04
30682;BME280;17439;48.092;11.842;2022-07-22T12:58:14;95438.59;;;34.24;30.99
30682;BME280;17439;48.092;11.842;2022-07-22T13:00:47;95438.44;;;34.28;31.41
30682;BME280;17439;48.092;11.842;2022-07-22T13:03:14;95436.41;;;34.28;31.25
30682;BME280;17439;48.092;11.842;2022-07-22T13:05:40;95434.97;;;34.33;31.54
30682;BME280;17439;48.092;11.842;2022-07-22T13:08:07;95430.63;;;34.41;31.10
30682;BME280;17439;48.092;11.842;2022-07-22T13:10:36;95432.03;;;34.46;30.91
30682;BME280;17439;48.092;11.842;2022-07-22T13:13:05;95425.44;;;34.49;30.67
30682;BME280;17439;48.092;11.842;2022-07-22T13:15:32;95430.94;;;34.52;30.75
30682;BME280;17439;48.092;11.842;2022-07-22T13:17:58;95430.59;;;34.50;30.96
30682;BME280;17439;48.092;11.842;2022-07-22T13:20:25;95428.25;;;34.49;30.72
30682;BME280;17439;48.092;11.842;2022-07-22T13:22:52;95421.69;;;34.52;30.86
30682;BME280;17439;48.092;11.842;2022-07-22T13:25:18;95412.31;;;34.55;30.65
30682;BME280;17439;48.092;11.842;2022-07-22T13:27:47;95414.06;;;34.62;30.87